createdAt,value
2019-03-04T00:02:07.187Z,15.00
2019-03-04T00:04:35.732Z,14.07
2019-03-04T00:07:04.398Z,14.67
2019-03-04T00:09:33.017Z,18.03
2019-03-04T00:12:01.631Z,13.40
2019-03-04T00:14:30.289Z,13.00
2019-03-04T00:16:58.921Z,12.73
2019-03-04T00:19:27.547Z,13.73
2019-03-04T00:21:56.201Z,11.47
2019-03-04T00:24:24.812Z,15.37
2019-03-04T00:26:53.439Z,13.47
2019-03-04T00:29:22.100Z,18.23
2019-03-04T00:31:50.724Z,12.27
2019-03-04T00:34:19.346Z,10.33
2019-03-04T00:36:48.011Z,20.17
2019-03-04T00:39:16.557Z,11.40
2019-03-04T00:41:45.173Z,9.40
2019-03-04T00:44:13.833Z,13.57
2019-03-04T00:46:42.451Z,16.10
2019-03-04T00:49:11.072Z,4.80
2019-03-04T00:51:39.729Z,10.00
2019-03-04T00:54:08.359Z,9.73
2019-03-04T00:56:36.974Z,8.50
2019-03-04T00:59:05.633Z,11.07
2019-03-04T01:01:34.255Z,8.77
2019-03-04T01:04:02.952Z,10.80
2019-03-04T01:06:31.616Z,10.37
2019-03-04T01:09:00.236Z,8.80
2019-03-04T01:11:28.854Z,9.53
2019-03-04T01:13:57.532Z,11.50
2019-03-04T01:16:26.153Z,8.30
2019-03-04T01:18:54.784Z,8.50
2019-03-04T01:21:23.445Z,8.60
2019-03-04T01:23:52.057Z,7.77
2019-03-04T01:26:20.680Z,10.33
2019-03-04T01:28:49.331Z,9.23
2019-03-04T01:31:17.941Z,6.80
2019-03-04T01:33:46.564Z,7.83
2019-03-04T01:36:15.229Z,10.83
2019-03-04T01:38:43.781Z,9.03
2019-03-04T01:41:12.397Z,10.60
2019-03-04T01:43:41.899Z,12.83
2019-03-04T01:46:10.578Z,6.57
2019-03-04T01:48:39.219Z,8.40
2019-03-04T01:51:07.818Z,9.73
2019-03-04T01:53:36.438Z,10.03
2019-03-04T01:56:05.054Z,10.90
2019-03-04T01:58:33.708Z,7.73
2019-03-04T02:01:02.332Z,4.83
2019-03-04T02:03:30.950Z,5.23
2019-03-04T02:05:59.605Z,12.00
2019-03-04T02:08:28.237Z,10.20
2019-03-04T02:10:56.870Z,10.33
2019-03-04T02:13:25.538Z,11.30
2019-03-04T02:15:54.289Z,7.50
2019-03-04T02:18:22.910Z,8.77
2019-03-04T02:20:51.571Z,7.47
2019-03-04T02:23:20.207Z,9.73
2019-03-04T02:25:51.743Z,8.67
2019-03-04T02:28:20.469Z,16.87
2019-03-04T02:30:49.096Z,8.87
2019-03-04T02:33:17.722Z,8.37
2019-03-04T02:38:46.584Z,13.23
2019-03-04T02:41:15.217Z,14.30
2019-03-04T02:43:43.866Z,17.23
2019-03-04T02:46:13.341Z,14.53
2019-03-04T02:48:41.963Z,11.63
2019-03-04T02:51:10.591Z,14.07
2019-03-04T02:53:39.261Z,13.33
2019-03-04T02:56:07.894Z,13.60
2019-03-04T02:58:36.522Z,14.67
2019-03-04T03:01:05.266Z,11.93
2019-03-04T03:03:33.893Z,12.13
2019-03-04T03:06:02.529Z,17.90
2019-03-04T03:08:31.183Z,15.17
2019-03-04T03:10:59.814Z,15.67
2019-03-04T03:13:28.452Z,13.20
2019-03-04T03:15:57.090Z,18.67
2019-03-04T03:18:25.701Z,12.20
2019-03-04T03:20:54.339Z,11.70
2019-03-04T03:23:22.999Z,12.70
2019-03-04T03:25:51.631Z,13.37
2019-03-04T03:28:20.256Z,17.57
2019-03-04T03:30:48.910Z,12.83
2019-03-04T03:33:17.530Z,13.40
2019-03-04T03:35:46.145Z,9.80
2019-03-04T03:38:14.814Z,12.40
2019-03-04T03:40:43.435Z,12.27
2019-03-04T03:43:12.065Z,12.87
2019-03-04T03:45:40.711Z,12.50
2019-03-04T03:48:09.339Z,16.87
2019-03-04T03:50:37.950Z,10.17
2019-03-04T03:53:06.605Z,12.00
2019-03-04T03:55:35.228Z,18.93
2019-03-04T03:58:03.853Z,13.77
2019-03-04T04:00:32.523Z,13.13
2019-03-04T04:03:01.135Z,10.30
2019-03-04T04:05:29.751Z,6.87
2019-03-04T04:07:58.414Z,11.67
2019-03-04T04:10:27.035Z,12.27
2019-03-04T04:12:55.657Z,11.10
2019-03-04T04:15:24.314Z,15.13
2019-03-04T04:17:52.932Z,11.40
2019-03-04T04:20:21.548Z,11.90
2019-03-04T04:22:50.199Z,9.00
2019-03-04T04:25:18.826Z,7.50
2019-03-04T04:27:47.453Z,23.10
2019-03-04T04:30:18.749Z,13.40
2019-03-04T04:32:47.383Z,16.63
2019-03-04T04:35:15.987Z,13.03
2019-03-04T04:37:44.663Z,14.90
2019-03-04T04:40:16.190Z,17.30
2019-03-04T04:42:44.805Z,12.00
2019-03-04T04:45:13.450Z,9.37
2019-03-04T04:47:43.177Z,18.83
2019-03-04T04:50:17.692Z,10.90
2019-03-04T04:52:46.319Z,12.73
2019-03-04T04:55:14.938Z,10.77
2019-03-04T04:57:43.593Z,11.53
2019-03-04T05:00:14.594Z,17.67
2019-03-04T05:02:43.212Z,11.13
2019-03-04T05:05:11.872Z,13.30
2019-03-04T05:07:40.502Z,11.40
2019-03-04T05:10:22.635Z,10.87
2019-03-04T05:12:51.246Z,9.97
2019-03-04T05:15:20.064Z,9.90
2019-03-04T05:17:48.728Z,13.10
2019-03-04T05:20:26.886Z,11.50
2019-03-04T05:22:55.466Z,11.83
2019-03-04T05:25:24.096Z,13.53
2019-03-04T05:27:52.718Z,10.70
2019-03-04T05:30:22.272Z,8.97
2019-03-04T05:32:50.900Z,14.57
2019-03-04T05:35:19.523Z,18.33
2019-03-04T05:37:48.198Z,15.37
2019-03-04T05:40:18.700Z,17.63
2019-03-04T05:42:47.535Z,15.10
2019-03-04T05:45:19.451Z,13.80
2019-03-04T05:47:48.064Z,12.67
2019-03-04T05:50:25.108Z,12.73
2019-03-04T05:52:53.726Z,16.17
2019-03-04T05:55:23.455Z,20.47
2019-03-04T05:57:52.113Z,17.97
2019-03-04T06:00:23.106Z,15.70
2019-03-04T06:02:53.981Z,17.40
2019-03-04T06:05:22.643Z,19.63
2019-03-04T06:07:52.908Z,18.37
2019-03-04T06:10:21.538Z,21.03
2019-03-04T06:12:50.203Z,19.60
2019-03-04T06:15:22.081Z,13.13
2019-03-04T06:17:50.706Z,17.80
2019-03-04T06:20:20.349Z,28.93
2019-03-04T06:22:48.974Z,24.93
2019-03-04T06:25:20.508Z,14.03
2019-03-04T06:27:49.169Z,17.73
2019-03-04T06:30:20.326Z,12.47
2019-03-04T06:32:48.963Z,12.87
2019-03-04T06:35:17.618Z,11.57
2019-03-04T06:37:46.243Z,12.53
2019-03-04T06:40:16.837Z,14.67
2019-03-04T06:42:45.609Z,13.00
2019-03-04T06:45:16.472Z,15.07
2019-03-04T06:47:45.190Z,15.67
2019-03-04T06:50:45.552Z,24.77
2019-03-04T06:53:17.016Z,18.47
2019-03-04T06:55:51.518Z,21.97
2019-03-04T06:58:20.145Z,15.90
2019-03-04T07:00:51.079Z,14.47
2019-03-04T07:03:21.042Z,15.47
2019-03-04T07:05:50.631Z,16.60
2019-03-04T07:08:40.299Z,13.43
2019-03-04T07:11:08.922Z,19.70
2019-03-04T07:13:37.548Z,15.47
2019-03-04T07:16:06.226Z,14.53
2019-03-04T07:18:34.854Z,20.03
2019-03-04T07:21:03.471Z,22.37
2019-03-04T07:23:32.123Z,22.13
2019-03-04T07:26:00.748Z,12.73
2019-03-04T07:28:29.373Z,15.27
2019-03-04T07:30:58.032Z,17.30
2019-03-04T07:33:26.649Z,19.27
2019-03-04T07:35:55.277Z,10.90
2019-03-04T07:38:26.847Z,16.80
2019-03-04T07:40:55.476Z,15.30
2019-03-04T07:43:24.082Z,11.73
2019-03-04T07:45:52.742Z,15.23
2019-03-04T07:48:21.395Z,17.17
2019-03-04T07:50:49.992Z,14.00
2019-03-04T07:53:19.191Z,17.20
2019-03-04T07:55:47.891Z,23.40
2019-03-04T07:58:16.496Z,15.93
2019-03-04T08:00:45.216Z,15.73
2019-03-04T08:03:13.846Z,16.40
2019-03-04T08:05:42.473Z,15.13
2019-03-04T08:08:13.039Z,18.53
2019-03-04T08:11:15.975Z,17.50
2019-03-04T08:13:56.348Z,25.93
2019-03-04T08:16:24.972Z,25.87
2019-03-04T08:18:53.603Z,23.67
2019-03-04T08:21:22.275Z,20.73
2019-03-04T08:23:50.904Z,22.80
2019-03-04T08:26:19.539Z,24.00
2019-03-04T08:28:48.200Z,22.83
2019-03-04T08:31:16.827Z,21.97
2019-03-04T08:33:45.455Z,16.13
2019-03-04T08:36:14.112Z,25.63
2019-03-04T08:38:42.747Z,22.40
2019-03-04T08:41:11.379Z,20.57
2019-03-04T08:43:40.043Z,22.73
2019-03-04T08:46:08.674Z,22.47
2019-03-04T08:48:37.308Z,25.33
2019-03-04T08:51:05.976Z,20.63
2019-03-04T08:53:35.438Z,24.60
2019-03-04T08:56:04.068Z,20.47
2019-03-04T08:58:34.365Z,26.67
2019-03-04T09:01:03.154Z,25.57
2019-03-04T09:03:31.770Z,23.33
2019-03-04T09:06:00.438Z,25.70
2019-03-04T09:08:29.067Z,31.23
2019-03-04T09:10:57.691Z,23.43
2019-03-04T09:13:26.358Z,21.77
2019-03-04T09:15:54.987Z,24.43
2019-03-04T09:18:23.613Z,22.30
2019-03-04T09:20:52.275Z,28.47
2019-03-04T09:23:20.908Z,22.97
2019-03-04T09:25:55.214Z,22.13
2019-03-04T09:28:23.887Z,30.50
2019-03-04T09:30:52.519Z,21.93
2019-03-04T09:33:21.231Z,24.80
2019-03-04T09:35:49.898Z,30.23
2019-03-04T09:38:18.527Z,24.43
2019-03-04T09:40:47.169Z,28.07
2019-03-04T09:43:15.828Z,26.00
2019-03-04T09:45:44.459Z,29.17
2019-03-04T09:48:13.081Z,4.63
2019-03-04T09:50:41.750Z,5.90
2019-03-04T09:53:10.366Z,1.83
2019-03-04T09:55:39.832Z,2.77
2019-03-04T09:58:08.507Z,10.40
2019-03-04T10:00:39.131Z,2.63
2019-03-04T10:03:40.609Z,4.60
2019-03-04T10:06:42.247Z,4.27
2019-03-04T10:09:25.479Z,8.50
2019-03-04T10:11:57.006Z,51.27
2019-03-04T10:14:49.447Z,9.73
2019-03-04T10:17:39.037Z,9.10
2019-03-04T10:20:31.325Z,9.47
2019-03-04T10:23:22.034Z,2.97
2019-03-04T10:26:05.315Z,7.30
2019-03-04T10:28:54.735Z,4.00
2019-03-04T10:31:31.923Z,4.43
2019-03-04T10:34:27.500Z,4.27
2019-03-04T10:39:59.115Z,4.17
2019-03-04T10:42:46.773Z,4.07
2019-03-04T10:45:33.029Z,3.83
2019-03-04T10:48:01.650Z,6.83
2019-03-04T10:50:30.277Z,3.53
2019-03-04T10:52:58.935Z,3.83
2019-03-04T10:55:27.565Z,5.73
2019-03-04T10:57:56.182Z,1.57
2019-03-04T11:00:24.855Z,3.90
2019-03-04T11:02:53.477Z,6.73
2019-03-04T11:05:22.202Z,8.97
2019-03-04T11:07:50.861Z,7.57
2019-03-04T11:10:19.498Z,3.70
2019-03-04T11:12:48.124Z,3.17
2019-03-04T11:15:26.733Z,3.67
2019-03-04T11:17:55.355Z,4.93
2019-03-04T11:20:23.971Z,4.40
2019-03-04T11:22:52.704Z,2.53
2019-03-04T11:25:21.427Z,4.07
2019-03-04T11:27:50.124Z,2.67
2019-03-04T11:30:22.519Z,2.60
2019-03-04T11:32:51.125Z,4.70
2019-03-04T11:35:19.754Z,4.90
2019-03-04T11:37:48.407Z,4.43
2019-03-04T11:40:24.543Z,3.63
2019-03-04T11:42:53.204Z,6.37
2019-03-04T11:45:21.823Z,4.10
2019-03-04T11:47:50.446Z,3.63
2019-03-04T11:50:19.115Z,3.67
2019-03-04T11:52:47.746Z,2.43
2019-03-04T11:55:18.908Z,4.17
2019-03-04T11:57:47.571Z,1.40
2019-03-04T12:00:20.909Z,1.00
2019-03-04T12:02:49.534Z,4.23
2019-03-04T12:05:18.252Z,5.63
2019-03-04T12:07:46.882Z,8.70
2019-03-04T12:10:16.673Z,4.17
2019-03-04T12:12:45.440Z,5.43
2019-03-04T12:15:19.028Z,5.70
2019-03-04T12:17:47.716Z,8.20
2019-03-04T12:20:17.774Z,3.30
2019-03-04T12:22:46.402Z,4.40
2019-03-04T12:25:17.100Z,3.73
2019-03-04T12:27:45.770Z,6.77
2019-03-04T12:30:17.127Z,6.03
2019-03-04T12:32:45.752Z,3.53
2019-03-04T12:35:15.308Z,6.70
2019-03-04T12:37:43.930Z,7.00
2019-03-04T12:40:14.742Z,4.83
2019-03-04T12:42:43.396Z,3.73
2019-03-04T12:45:20.496Z,4.10
2019-03-04T12:47:49.226Z,4.63
2019-03-04T12:50:25.533Z,3.77
2019-03-04T12:52:54.692Z,3.40
2019-03-04T12:55:23.316Z,5.00
2019-03-04T12:57:52.777Z,5.73
2019-03-04T13:00:23.032Z,4.67
2019-03-04T13:02:57.431Z,7.73
2019-03-04T13:05:22.105Z,4.73
2019-03-04T13:07:50.761Z,3.57
2019-03-04T13:10:19.951Z,4.70
2019-03-04T13:12:48.771Z,2.80
2019-03-04T13:15:35.048Z,3.20
2019-03-04T13:18:06.067Z,2.53
2019-03-04T13:20:34.774Z,5.13
2019-03-04T13:23:03.428Z,1.87
2019-03-04T13:25:32.055Z,4.40
2019-03-04T13:28:07.778Z,5.57
2019-03-04T13:30:36.598Z,3.70
2019-03-04T13:33:05.317Z,5.33
2019-03-04T13:35:39.608Z,2.97
2019-03-04T13:38:08.277Z,3.60
2019-03-04T13:40:37.105Z,9.17
2019-03-04T13:43:05.797Z,3.63
2019-03-04T13:45:34.619Z,2.60
2019-03-04T13:48:03.246Z,5.77
2019-03-04T13:50:32.671Z,6.07
2019-03-04T13:53:01.326Z,3.13
2019-03-04T13:55:29.953Z,4.90
2019-03-04T13:57:59.378Z,3.83
2019-03-04T14:00:36.538Z,4.37
2019-03-04T14:03:05.267Z,1.90
2019-03-04T14:05:33.892Z,3.00
2019-03-04T14:08:02.554Z,3.07
2019-03-04T14:10:45.746Z,4.03
2019-03-04T14:13:14.404Z,3.37
2019-03-04T14:15:47.937Z,3.63
2019-03-04T14:18:16.558Z,4.87
2019-03-04T14:20:45.220Z,5.10
2019-03-04T14:23:13.851Z,4.50
2019-03-04T14:25:42.481Z,5.90
2019-03-04T14:28:11.141Z,4.00
2019-03-04T14:30:39.761Z,4.10
2019-03-04T14:33:08.388Z,3.30
2019-03-04T14:35:37.043Z,3.70
2019-03-04T14:38:05.670Z,4.10
2019-03-04T14:40:34.304Z,7.37
2019-03-04T14:43:02.966Z,8.07
2019-03-04T14:45:31.587Z,6.27
2019-03-04T14:48:00.283Z,7.53
2019-03-04T14:50:28.962Z,11.03
2019-03-04T14:52:57.598Z,4.07
2019-03-04T14:55:29.126Z,2.77
2019-03-04T14:57:57.804Z,3.00
2019-03-04T15:00:31.052Z,5.13
2019-03-04T15:02:59.728Z,3.47
2019-03-04T15:05:28.410Z,3.20
2019-03-04T15:07:57.039Z,4.70
2019-03-04T15:10:25.664Z,6.23
2019-03-04T15:12:54.322Z,3.50
2019-03-04T15:15:27.358Z,5.43
2019-03-04T15:17:56.067Z,5.70
2019-03-04T15:20:27.252Z,7.13
2019-03-04T15:22:55.948Z,7.97
2019-03-04T15:25:27.409Z,4.03
2019-03-04T15:27:58.971Z,4.87
2019-03-04T15:30:27.676Z,4.20
2019-03-04T15:32:56.371Z,5.27
2019-03-04T15:35:25.024Z,3.00
2019-03-04T15:37:53.707Z,7.07
2019-03-04T15:40:22.328Z,3.77
2019-03-04T15:42:51.064Z,7.40
2019-03-04T15:45:19.768Z,3.27
2019-03-04T15:47:48.398Z,12.87
2019-03-04T15:50:17.227Z,4.50
2019-03-04T15:52:45.924Z,4.80
2019-03-04T15:55:14.627Z,5.70
2019-03-04T15:57:43.363Z,7.10
2019-03-04T16:00:17.344Z,11.60
2019-03-04T16:02:48.752Z,6.00
2019-03-04T16:05:17.881Z,6.07
2019-03-04T16:07:46.669Z,9.33
2019-03-04T16:10:21.506Z,11.93
2019-03-04T16:12:50.303Z,7.27
2019-03-04T16:15:20.225Z,9.97
2019-03-04T16:17:49.076Z,12.43
2019-03-04T16:20:19.850Z,32.93
2019-03-04T16:22:49.050Z,10.73
2019-03-04T16:25:17.792Z,10.13
2019-03-04T16:27:46.496Z,16.90
2019-03-04T16:30:21.076Z,10.43
2019-03-04T16:32:49.820Z,8.10
2019-03-04T16:35:18.821Z,7.77
2019-03-04T16:37:47.532Z,7.90
2019-03-04T16:40:17.555Z,5.47
2019-03-04T16:42:46.179Z,7.43
2019-03-04T16:45:19.726Z,4.00
2019-03-04T16:47:48.772Z,14.30
2019-03-04T16:50:19.068Z,10.67
2019-03-04T16:52:50.481Z,60.73
2019-03-04T16:55:19.245Z,32.43
2019-03-04T16:57:47.966Z,17.97
2019-03-04T17:01:01.472Z,12.97
2019-03-04T17:03:31.005Z,8.57
2019-03-04T17:05:59.909Z,7.10
2019-03-04T17:08:28.673Z,8.77
2019-03-04T17:10:57.365Z,6.33
2019-03-04T17:13:26.345Z,4.17
2019-03-04T17:15:55.181Z,8.73
2019-03-04T17:18:23.880Z,8.13
2019-03-04T17:20:52.569Z,7.10
2019-03-04T17:23:21.489Z,5.60
2019-03-04T17:25:50.179Z,4.73
2019-03-04T17:28:19.476Z,7.17
2019-03-04T17:30:48.262Z,10.77
2019-03-04T17:33:17.071Z,3.60
2019-03-04T17:35:45.766Z,5.13
2019-03-04T17:38:14.502Z,10.73
2019-03-04T17:40:43.209Z,9.27
2019-03-04T17:43:11.914Z,4.70
2019-03-04T17:45:40.632Z,5.50
2019-03-04T17:48:09.327Z,9.93
2019-03-04T17:50:40.275Z,9.13
2019-03-04T17:53:11.110Z,7.93
2019-03-04T17:55:39.807Z,8.43
2019-03-04T17:58:08.498Z,5.67
2019-03-04T18:00:38.912Z,5.13
2019-03-04T18:03:07.817Z,18.87
2019-03-04T18:05:36.507Z,6.27
2019-03-04T18:08:05.337Z,5.50
2019-03-04T18:10:34.029Z,4.90
2019-03-04T18:13:05.522Z,3.17
2019-03-04T18:15:41.612Z,6.23
2019-03-04T18:18:10.312Z,5.70
2019-03-04T18:20:39.017Z,13.07
2019-03-04T18:23:07.746Z,7.47
2019-03-04T18:25:45.254Z,6.27
2019-03-04T18:28:19.521Z,4.60
2019-03-04T18:30:57.155Z,4.83
2019-03-04T18:33:34.560Z,4.67
2019-03-04T18:36:09.114Z,18.30
2019-03-04T18:38:46.737Z,9.13
2019-03-04T18:41:34.823Z,13.03
2019-03-04T18:44:06.453Z,9.77
2019-03-04T18:46:52.992Z,8.23
2019-03-04T18:49:21.791Z,9.93
2019-03-04T18:51:50.517Z,5.67
2019-03-04T18:54:19.208Z,13.23
2019-03-04T18:56:48.174Z,7.80
2019-03-04T18:59:16.882Z,19.90
2019-03-04T19:01:45.675Z,8.60
2019-03-04T19:04:14.443Z,10.60
2019-03-04T19:06:44.597Z,9.23
2019-03-04T19:09:13.594Z,8.30
2019-03-04T19:11:42.336Z,10.73
2019-03-04T19:14:11.134Z,9.03
2019-03-04T19:16:39.828Z,14.20
2019-03-04T19:19:08.676Z,13.27
2019-03-04T19:21:37.390Z,18.50
2019-03-04T19:24:06.083Z,10.80
2019-03-04T19:26:34.927Z,14.33
2019-03-04T19:29:03.633Z,27.83
2019-03-04T19:31:32.433Z,27.10
2019-03-04T19:34:01.157Z,10.87
2019-03-04T19:36:29.861Z,23.00
2019-03-04T19:38:58.662Z,8.73
2019-03-04T19:41:27.446Z,8.40
2019-03-04T19:43:56.246Z,11.23
2019-03-04T19:46:25.033Z,8.50
2019-03-04T19:48:53.767Z,9.47
2019-03-04T19:51:22.476Z,7.07
2019-03-04T19:53:51.367Z,12.80
2019-03-04T19:56:20.220Z,13.73
2019-03-04T19:58:48.908Z,8.20
2019-03-04T20:01:17.632Z,10.93
2019-03-04T20:03:46.348Z,9.73
2019-03-04T20:06:15.055Z,20.03
2019-03-04T20:08:44.449Z,30.43
2019-03-04T20:11:13.187Z,6.10
2019-03-04T20:13:41.908Z,12.30
2019-03-04T20:16:10.612Z,8.47
2019-03-04T20:18:39.349Z,6.13
2019-03-04T20:21:08.574Z,8.17
2019-03-04T20:23:37.240Z,7.10
2019-03-04T20:26:06.236Z,17.80
2019-03-04T20:28:34.940Z,16.70
2019-03-04T20:31:03.637Z,11.43
2019-03-04T20:33:32.397Z,30.80
2019-03-04T20:36:01.029Z,34.83
2019-03-04T20:38:35.923Z,31.80
2019-03-04T20:41:04.656Z,33.77
2019-03-04T20:43:33.293Z,42.77
2019-03-04T20:46:01.990Z,14.37
2019-03-04T20:48:30.730Z,28.07
2019-03-04T20:51:00.237Z,20.20
2019-03-04T20:53:28.933Z,42.83
2019-03-04T20:55:57.678Z,20.13
2019-03-04T20:58:26.528Z,37.97
2019-03-04T21:00:55.165Z,33.57
2019-03-04T21:03:23.831Z,34.43
2019-03-04T21:05:52.542Z,52.50
2019-03-04T21:08:21.335Z,42.27
2019-03-04T21:10:51.176Z,11.00
2019-03-04T21:13:23.649Z,24.80
2019-03-04T21:15:52.645Z,36.43
2019-03-04T21:18:21.414Z,29.53
2019-03-04T21:20:50.509Z,17.50
2019-03-04T21:23:19.212Z,10.47
2019-03-04T21:25:51.955Z,35.40
2019-03-04T21:28:37.785Z,21.40
2019-03-04T21:31:18.078Z,16.47
2019-03-04T21:33:58.104Z,11.33
2019-03-04T21:36:47.509Z,13.53
2019-03-04T21:39:19.199Z,15.37
2019-03-04T21:41:50.723Z,8.73
2019-03-04T21:44:47.759Z,10.63
2019-03-04T21:47:27.869Z,16.07
2019-03-04T21:49:56.557Z,11.03
2019-03-04T21:52:36.287Z,8.80
2019-03-04T21:55:16.609Z,5.03
2019-03-04T21:57:47.845Z,5.10
2019-03-04T22:00:23.758Z,5.90
2019-03-04T22:03:04.066Z,6.30
2019-03-04T22:05:32.729Z,8.17
2019-03-04T22:08:01.370Z,5.43
2019-03-04T22:10:30.110Z,7.93
2019-03-04T22:12:58.742Z,5.70
2019-03-04T22:15:27.962Z,8.97
2019-03-04T22:17:56.577Z,14.67
2019-03-04T22:20:25.453Z,2.27
2019-03-04T22:22:54.177Z,11.23
2019-03-04T22:25:22.801Z,11.80
2019-03-04T22:27:51.509Z,13.17
2019-03-04T22:30:20.353Z,11.70
2019-03-04T22:32:49.180Z,9.60
2019-03-04T22:35:17.932Z,15.10
2019-03-04T22:37:46.668Z,11.37
2019-03-04T22:40:20.330Z,10.70
2019-03-04T22:42:48.986Z,9.73
2019-03-04T22:45:19.322Z,12.10
2019-03-04T22:47:49.142Z,15.93
2019-03-04T22:50:19.730Z,13.00
2019-03-04T22:52:48.459Z,14.50
2019-03-04T22:55:28.375Z,10.10
2019-03-04T22:57:56.993Z,11.80
2019-03-04T23:00:54.173Z,13.27
2019-03-04T23:03:25.132Z,8.73
2019-03-04T23:06:02.395Z,16.97
2019-03-04T23:08:31.040Z,29.83
2019-03-04T23:10:59.667Z,23.70
2019-03-04T23:13:46.003Z,23.37
2019-03-04T23:16:17.923Z,20.50
2019-03-04T23:18:46.539Z,16.00
2019-03-04T23:21:15.197Z,13.37
2019-03-04T23:23:43.825Z,12.10
2019-03-04T23:26:12.469Z,11.17
2019-03-04T23:28:41.202Z,13.90
2019-03-04T23:31:09.817Z,21.97
2019-03-04T23:33:38.447Z,23.60
2019-03-04T23:36:07.130Z,17.03
2019-03-04T23:38:35.753Z,9.20
2019-03-04T23:41:04.380Z,11.10
2019-03-04T23:43:33.534Z,10.03
2019-03-04T23:46:02.299Z,15.67
